Time;durP1;ratioP1;P1;durP2;ratioP2;P2;SDS_P1;SDS_P2;PMS_P1;PMS_P2;Temp;Humidity;BMP_temperature;BMP_pressure;BME280_temperature;BME280_humidity;BME280_pressure;Samples;Min_cycle;Max_cycle;Signal;HPM_P1;HPM_P2
2021/10/31 00:01:21;;;;;;;1.30;1.10;;;;;;;11.10;93.07;95018.50;5037363;28;20185;-78
2021/10/31 00:03:46;;;;;;;1.17;0.90;;;;;;;11.11;92.97;95030.50;5054325;28;20227;-78
2021/10/31 00:06:12;;;;;;;1.10;1.00;;;;;;;11.25;92.33;95022.06;5070204;28;20182;-78
2021/10/31 00:08:37;;;;;;;1.37;1.03;;;;;;;11.38;91.56;95032.75;5053386;28;20608;-79
2021/10/31 00:11:03;;;;;;;1.57;0.90;;;;;;;11.44;91.19;95020.88;5055263;28;20687;-79
2021/10/31 00:13:29;;;;;;;1.53;1.10;;;;;;;11.42;91.24;95031.47;5052735;28;20189;-79
2021/10/31 00:15:54;;;;;;;1.30;0.90;;;;;;;11.37;91.36;95031.13;5042112;28;20174;-79
2021/10/31 00:18:19;;;;;;;1.20;1.10;;;;;;;11.32;91.34;95043.81;5037020;28;20209;-79
2021/10/31 00:20:45;;;;;;;1.53;0.80;;;;;;;11.29;91.95;95046.72;5069833;28;20170;-79
2021/10/31 00:23:10;;;;;;;1.70;0.87;;;;;;;11.30;92.11;95043.97;5070332;28;20180;-79
2021/10/31 00:25:35;;;;;;;2.37;0.90;;;;;;;11.24;92.01;95038.63;5052387;28;20228;-79
2021/10/31 00:28:01;;;;;;;2.00;0.70;;;;;;;11.18;92.27;95039.28;5053820;28;20206;-79
2021/10/31 00:30:26;;;;;;;2.50;1.33;;;;;;;11.10;92.05;95050.47;5069867;28;20209;-79
2021/10/31 00:32:52;;;;;;;1.10;1.00;;;;;;;10.98;92.79;95031.81;5052868;28;20177;-78
2021/10/31 00:35:17;;;;;;;1.87;1.07;;;;;;;10.95;92.99;95047.72;5053062;28;20649;-79
2021/10/31 00:37:42;;;;;;;1.43;0.93;;;;;;;10.94;93.54;95042.69;5052920;28;20181;-79
2021/10/31 00:40:08;;;;;;;1.60;1.30;;;;;;;10.80;93.17;95053.72;5053665;28;20213;-79
2021/10/31 00:42:34;;;;;;;1.07;0.97;;;;;;;10.69;93.45;95055.66;5068750;28;20177;-79
2021/10/31 00:44:59;;;;;;;1.27;1.10;;;;;;;10.59;93.85;95067.16;5067963;28;20173;-78
2021/10/31 00:47:25;;;;;;;2.10;1.13;;;;;;;10.52;94.37;95058.38;5072677;28;20177;-79
2021/10/31 00:49:50;;;;;;;1.57;1.30;;;;;;;10.45;94.41;95061.63;5074496;28;20684;-78
2021/10/31 00:52:16;;;;;;;3.10;1.63;;;;;;;10.36;94.87;95067.75;5055921;28;20185;-78
2021/10/31 00:54:42;;;;;;;1.70;1.30;;;;;;;10.29;95.03;95069.34;5055659;28;20174;-79
2021/10/31 00:57:09;;;;;;;3.00;1.47;;;;;;;10.35;94.88;95060.94;5056305;28;20177;-79
2021/10/31 00:59:35;;;;;;;3.30;1.73;;;;;;;10.29;95.15;95056.38;5073347;28;20196;-78
2021/10/31 01:02:05;;;;;;;2.80;1.67;;;;;;;10.24;95.45;95053.41;5056750;28;20178;-79
2021/10/31 01:04:30;;;;;;;1.40;1.30;;;;;;;10.22;96.48;95068.34;5056286;28;20173;-79
2021/10/31 01:06:55;;;;;;;1.40;1.30;;;;;;;10.24;96.26;95075.97;5056282;28;20173;-79
2021/10/31 01:10:02;;;;;;;3.63;1.50;;;;;;;10.25;96.85;95068.06;5072481;28;20253;-78
2021/10/31 01:12:45;;;;;;;1.33;1.23;;;;;;;10.31;96.73;95059.63;5063012;28;20189;-79
2021/10/31 01:15:17;;;;;;;1.50;1.40;;;;;;;10.29;96.65;95058.16;5055573;28;20197;-79
2021/10/31 01:17:53;;;;;;;1.30;1.20;;;;;;;10.32;96.50;95052.63;5052842;28;20205;-79
2021/10/31 01:20:40;;;;;;;1.60;1.20;;;;;;;10.23;96.18;95049.22;5033791;28;20569;-79
2021/10/31 01:23:20;;;;;;;1.57;1.47;;;;;;;10.29;96.07;95061.56;5052485;28;20182;-78
2021/10/31 01:26:01;;;;;;;1.63;1.27;;;;;;;10.21;96.34;95059.72;5052022;28;20197;-79
2021/10/31 01:28:41;;;;;;;2.33;1.17;;;;;;;10.30;96.86;95068.38;5056342;28;20193;-78
2021/10/31 01:31:16;;;;;;;1.47;1.37;;;;;;;10.27;96.48;95060.91;5055918;28;20215;-79
2021/10/31 01:34:14;;;;;;;1.60;1.50;;;;;;;10.21;96.33;95061.50;5055845;28;20213;-78
2021/10/31 01:36:52;;;;;;;2.10;1.90;;;;;;;10.16;96.46;95062.00;5039392;28;20281;-78
2021/10/31 01:39:47;;;;;;;2.07;1.80;;;;;;;10.10;95.61;95062.59;5055914;28;20668;-79
2021/10/31 01:42:21;;;;;;;1.77;1.67;;;;;;;10.14;95.72;95060.50;5044534;28;20690;-79
2021/10/31 01:45:02;;;;;;;2.90;1.63;;;;;;;10.00;95.53;95061.09;5054893;28;20178;-79
2021/10/31 01:47:46;;;;;;;2.10;1.73;;;;;;;9.91;95.76;95055.88;5072416;28;20178;-78
2021/10/31 01:50:26;;;;;;;2.97;2.30;;;;;;;9.74;95.71;95061.94;5068495;28;20218;-79
2021/10/31 01:52:55;;;;;;;2.43;2.23;;;;;;;9.69;96.32;95063.38;5056916;28;20703;-78
2021/10/31 01:55:26;;;;;;;2.73;2.10;;;;;;;9.73;96.94;95059.53;5038976;28;20273;-79
2021/10/31 01:57:54;;;;;;;2.50;2.30;;;;;;;9.66;96.73;95056.72;5055936;28;20237;-79
2021/10/31 02:00:20;;;;;;;3.80;2.50;;;;;;;9.62;97.30;95058.78;5055639;28;20319;-78
2021/10/31 02:02:46;;;;;;;2.70;2.50;;;;;;;9.61;97.47;95051.97;5038761;28;20224;-79
2021/10/31 02:05:20;;;;;;;5.13;2.23;;;;;;;9.59;97.68;95047.94;5038207;28;20793;-79
2021/10/31 02:07:50;;;;;;;4.90;2.40;;;;;;;9.52;97.95;95044.31;5055452;28;20181;-79
2021/10/31 02:10:17;;;;;;;2.20;2.10;;;;;;;9.56;97.78;95040.47;5055541;28;20707;-78
2021/10/31 02:12:44;;;;;;;2.93;2.70;;;;;;;9.49;97.83;95037.66;5062194;28;20173;-78
2021/10/31 02:15:15;;;;;;;2.20;2.00;;;;;;;9.41;98.10;95035.03;5051132;28;20235;-78
2021/10/31 02:17:41;;;;;;;2.30;2.10;;;;;;;9.37;98.47;95038.91;5055101;28;20224;-78
2021/10/31 02:20:06;;;;;;;2.60;2.40;;;;;;;9.33;98.96;95053.09;5055529;28;20197;-79
2021/10/31 02:22:33;;;;;;;3.07;2.20;;;;;;;9.36;99.69;95053.63;5055168;28;20607;-78
2021/10/31 02:25:02;;;;;;;2.73;2.40;;;;;;;9.39;99.33;95052.50;5054388;28;20200;-78
2021/10/31 02:27:31;;;;;;;2.33;2.13;;;;;;;9.40;99.62;95058.50;5047185;28;20653;-79
2021/10/31 02:29:58;;;;;;;2.63;2.33;;;;;;;9.50;99.61;95048.84;5038172;28;20202;-78
2021/10/31 02:32:27;;;;;;;2.40;2.20;;;;;;;9.57;99.51;95049.88;5055478;28;20185;-78
2021/10/31 02:34:54;;;;;;;2.23;1.90;;;;;;;9.63;99.67;95044.06;5054080;28;20200;-78
2021/10/31 02:37:20;;;;;;;2.23;2.03;;;;;;;9.70;99.34;95047.66;5054980;28;20174;-78
2021/10/31 02:39:45;;;;;;;3.33;3.03;;;;;;;9.75;98.50;95042.84;5037321;28;20202;-78
2021/10/31 02:42:11;;;;;;;2.40;2.20;;;;;;;9.76;98.41;95033.28;5039731;28;20555;-78
2021/10/31 02:44:36;;;;;;;3.60;2.30;;;;;;;9.76;98.20;95035.88;5053368;28;20174;-78
2021/10/31 02:47:03;;;;;;;3.67;2.43;;;;;;;9.72;98.29;95034.53;5054807;28;20173;-78
2021/10/31 02:49:28;;;;;;;2.67;2.13;;;;;;;9.78;98.24;95034.72;5037824;28;20201;-79
2021/10/31 02:52:20;;;;;;;2.40;2.17;;;;;;;9.80;98.06;95029.38;5054765;28;20178;-79
2021/10/31 02:55:18;;;;;;;2.30;2.10;;;;;;;9.69;97.94;95037.44;5053926;28;20177;-79
2021/10/31 02:57:51;;;;;;;3.33;2.37;;;;;;;9.68;98.23;95044.41;5054621;28;20208;-79
2021/10/31 03:00:17;;;;;;;2.50;2.30;;;;;;;9.69;98.55;95035.66;5054572;28;20201;-79
2021/10/31 03:02:43;;;;;;;2.67;2.47;;;;;;;9.70;98.21;95033.88;5055497;28;20178;-78
2021/10/31 03:05:08;;;;;;;2.67;2.37;;;;;;;9.64;98.15;95037.91;5054308;28;20239;-78
2021/10/31 03:07:35;;;;;;;2.83;2.63;;;;;;;9.65;97.99;95039.53;5058881;28;20181;-78
2021/10/31 03:10:00;;;;;;;2.60;2.40;;;;;;;9.50;98.31;95043.66;5049793;28;20206;-79
2021/10/31 03:12:26;;;;;;;2.60;2.40;;;;;;;9.47;98.44;95038.78;5037372;28;20188;-79
2021/10/31 03:14:51;;;;;;;3.40;2.57;;;;;;;9.54;98.12;95039.78;5053392;28;20193;-79
2021/10/31 03:17:16;;;;;;;2.50;2.30;;;;;;;9.43;98.33;95033.09;5036913;28;20178;-79
2021/10/31 03:19:42;;;;;;;3.57;2.63;;;;;;;9.42;98.49;95030.66;5053505;28;20576;-79
2021/10/31 03:22:07;;;;;;;2.73;2.50;;;;;;;9.42;98.83;95026.28;5053898;28;20201;-79
2021/10/31 03:24:33;;;;;;;3.10;1.93;;;;;;;9.40;98.97;95028.22;5052841;28;20541;-79
2021/10/31 03:26:59;;;;;;;2.30;2.10;;;;;;;9.43;99.75;95021.91;5037648;28;20216;-79
2021/10/31 03:29:25;;;;;;;2.90;2.27;;;;;;;9.47;99.31;95020.66;5053853;28;20208;-78
2021/10/31 03:31:51;;;;;;;3.10;2.40;;;;;;;9.46;99.40;95022.44;5053757;28;20181;-78
2021/10/31 03:34:17;;;;;;;2.40;2.20;;;;;;;9.55;99.28;95023.28;5053125;28;20194;-79
2021/10/31 03:36:42;;;;;;;3.43;2.53;;;;;;;9.55;99.22;95023.28;5037432;28;20221;-79
2021/10/31 03:39:08;;;;;;;2.50;2.30;;;;;;;9.58;99.05;95016.00;5062067;28;20209;-79
2021/10/31 03:41:33;;;;;;;2.60;2.40;;;;;;;9.60;99.40;95029.63;5053455;28;20182;-79
2021/10/31 03:43:58;;;;;;;4.63;2.23;;;;;;;9.62;99.12;95027.69;5036628;28;20173;-78
2021/10/31 03:46:24;;;;;;;3.00;1.87;;;;;;;9.68;98.93;95026.25;5037570;28;20204;-78
2021/10/31 03:48:49;;;;;;;3.53;2.20;;;;;;;9.74;98.61;95023.06;5053865;28;20190;-78
2021/10/31 03:51:14;;;;;;;2.40;2.20;;;;;;;9.74;98.41;95030.84;5035854;28;20416;-80
2021/10/31 03:53:40;;;;;;;2.93;2.10;;;;;;;9.80;98.61;95021.59;5035599;28;20180;-78
2021/10/31 03:56:05;;;;;;;3.90;1.87;;;;;;;9.81;98.13;95020.66;5036207;28;20185;-79
2021/10/31 03:58:30;;;;;;;2.03;1.80;;;;;;;9.90;98.09;95004.16;5054498;28;20194;-79
2021/10/31 04:00:56;;;;;;;2.00;1.70;;;;;;;9.86;98.07;95008.03;5053446;28;20630;-79
2021/10/31 04:03:21;;;;;;;2.03;1.83;;;;;;;9.89;98.35;95008.53;5052994;28;20185;-79
2021/10/31 04:05:46;;;;;;;2.47;1.87;;;;;;;9.88;98.23;95016.47;5052682;28;20200;-79
2021/10/31 04:08:12;;;;;;;1.90;1.70;;;;;;;9.88;98.36;95012.09;5055752;28;20178;-79
2021/10/31 04:10:38;;;;;;;2.37;1.50;;;;;;;9.84;98.29;95013.38;5060502;28;20221;-79
2021/10/31 04:13:03;;;;;;;1.70;1.60;;;;;;;9.85;98.20;95012.41;5056861;28;20274;-79
2021/10/31 04:15:28;;;;;;;1.90;1.80;;;;;;;9.93;98.34;95015.03;5073080;28;20173;-79
2021/10/31 04:17:54;;;;;;;2.03;1.70;;;;;;;9.88;98.04;95013.88;5072702;28;20212;-79
2021/10/31 04:20:20;;;;;;;2.30;2.10;;;;;;;9.89;97.54;95013.72;5072802;28;20204;-79
2021/10/31 04:22:46;;;;;;;2.20;2.00;;;;;;;9.84;97.50;95020.34;5073407;28;20228;-79
2021/10/31 04:25:11;;;;;;;2.20;2.00;;;;;;;9.86;97.34;95014.03;5072401;28;20196;-79
2021/10/31 04:27:37;;;;;;;1.57;1.40;;;;;;;9.82;97.04;95007.53;5056927;28;20177;-78
2021/10/31 04:30:08;;;;;;;3.33;1.63;;;;;;;9.80;97.49;95004.25;5073158;28;20668;-79
2021/10/31 04:32:34;;;;;;;2.30;2.10;;;;;;;9.84;97.76;95003.00;5073812;28;20234;-79
2021/10/31 04:34:59;;;;;;;1.60;1.50;;;;;;;9.87;97.94;94996.69;5072287;28;20700;-79
2021/10/31 04:37:25;;;;;;;2.07;1.47;;;;;;;9.89;97.75;94995.56;5069277;28;20204;-78
2021/10/31 04:39:50;;;;;;;1.57;1.40;;;;;;;9.90;98.11;95004.16;5050319;28;20291;-78
2021/10/31 04:42:16;;;;;;;2.87;1.50;;;;;;;9.91;97.73;94996.22;5036917;28;20186;-79
2021/10/31 04:44:41;;;;;;;3.90;1.73;;;;;;;9.86;97.93;94997.66;5053484;28;20181;-79
2021/10/31 04:47:08;;;;;;;1.83;1.50;;;;;;;9.89;97.84;95003.34;5053083;28;20638;-78
2021/10/31 04:49:33;;;;;;;1.70;1.60;;;;;;;9.85;97.60;94991.66;5052555;28;20201;-79
2021/10/31 04:51:59;;;;;;;1.77;1.40;;;;;;;9.85;97.55;94985.66;5052910;28;20500;-79
2021/10/31 04:54:25;;;;;;;3.77;1.60;;;;;;;9.72;97.14;94986.13;5036034;28;20181;-78
2021/10/31 04:56:50;;;;;;;1.73;1.50;;;;;;;9.69;97.20;94981.22;5052824;28;20182;-78
2021/10/31 04:59:16;;;;;;;1.93;1.70;;;;;;;9.67;96.73;94983.16;5053479;28;20198;-79
2021/10/31 05:01:42;;;;;;;2.20;1.83;;;;;;;9.63;96.75;94985.25;5052832;28;20200;-78
2021/10/31 05:04:08;;;;;;;1.90;1.80;;;;;;;9.64;97.08;94980.88;5056117;28;20580;-79
2021/10/31 05:06:33;;;;;;;1.87;1.73;;;;;;;9.60;96.67;94976.97;5040279;28;20182;-79
2021/10/31 05:08:59;;;;;;;2.37;2.17;;;;;;;9.68;96.69;94978.78;5062727;28;20205;-79
2021/10/31 05:11:24;;;;;;;2.77;2.13;;;;;;;9.69;96.44;94970.84;5057722;28;20220;-79
2021/10/31 05:13:50;;;;;;;1.67;1.57;;;;;;;9.62;96.42;94975.84;5055508;28;20186;-79
2021/10/31 05:16:15;;;;;;;1.90;1.70;;;;;;;9.66;96.74;94968.56;5056155;28;20181;-79
2021/10/31 05:18:40;;;;;;;1.93;1.53;;;;;;;9.64;96.39;94966.16;5056080;28;20266;-79
2021/10/31 05:21:06;;;;;;;2.00;1.80;;;;;;;9.59;96.31;94963.19;5039137;28;20205;-79
2021/10/31 05:23:31;;;;;;;1.73;1.50;;;;;;;9.63;96.08;94967.13;5055261;28;20181;-80
2021/10/31 05:25:57;;;;;;;1.50;1.40;;;;;;;9.70;96.36;94972.47;5055934;28;20193;-79
2021/10/31 05:28:22;;;;;;;4.47;1.80;;;;;;;9.64;95.85;94968.75;5056036;28;20265;-79
2021/10/31 05:30:47;;;;;;;3.33;1.70;;;;;;;9.62;96.18;94969.84;5056845;28;20568;-79
2021/10/31 05:33:13;;;;;;;1.73;1.57;;;;;;;9.57;95.91;94972.91;5039100;28;20174;-79
2021/10/31 05:35:38;;;;;;;2.33;2.13;;;;;;;9.55;96.32;94976.63;5055054;28;20552;-79
2021/10/31 05:38:05;;;;;;;2.43;1.60;;;;;;;9.49;96.63;94969.47;5062479;28;20180;-79
2021/10/31 05:40:31;;;;;;;1.73;1.60;;;;;;;9.52;96.82;94969.16;5041564;28;20174;-79
2021/10/31 05:42:56;;;;;;;2.30;1.57;;;;;;;9.54;96.69;94967.22;5055581;28;20546;-79
2021/10/31 05:45:22;;;;;;;3.07;1.50;;;;;;;9.58;96.30;94960.75;5058020;28;20268;-79
2021/10/31 05:47:47;;;;;;;2.00;1.80;;;;;;;9.47;96.36;94956.66;5075808;28;20699;-79
2021/10/31 05:50:15;;;;;;;1.80;1.63;;;;;;;9.41;96.57;94962.47;5075787;28;20216;-78
2021/10/31 05:52:41;;;;;;;2.07;1.30;;;;;;;9.36;96.82;94960.34;5058943;28;20181;-79
2021/10/31 05:55:08;;;;;;;2.10;1.37;;;;;;;9.36;96.61;94960.34;5058423;28;20211;-78
2021/10/31 05:57:33;;;;;;;1.87;1.20;;;;;;;9.31;96.79;94954.00;5080067;28;20595;-80
2021/10/31 05:59:58;;;;;;;1.77;1.33;;;;;;;9.29;96.81;94954.16;5059953;28;20197;-80
2021/10/31 06:02:24;;;;;;;1.40;1.30;;;;;;;9.37;96.77;94940.44;5075440;28;20177;-78
2021/10/31 06:04:49;;;;;;;1.30;1.20;;;;;;;9.25;96.99;94946.81;5079007;28;20187;-79
2021/10/31 06:07:15;;;;;;;2.23;1.60;;;;;;;9.25;97.03;94950.22;5059950;28;20181;-79
2021/10/31 06:09:40;;;;;;;1.37;1.10;;;;;;;9.21;97.13;94943.75;5067295;28;20201;-79
2021/10/31 06:12:07;;;;;;;2.17;1.30;;;;;;;9.22;97.37;94947.97;5040914;28;20208;-78
2021/10/31 06:14:33;;;;;;;1.80;1.40;;;;;;;9.21;97.68;94951.50;5055825;28;20181;-79
2021/10/31 06:16:59;;;;;;;1.57;1.00;;;;;;;9.22;97.77;94953.13;5040031;28;20245;-78
2021/10/31 06:19:24;;;;;;;1.73;1.20;;;;;;;9.25;97.96;94958.00;5039684;28;20201;-78
2021/10/31 06:21:49;;;;;;;1.63;1.23;;;;;;;9.30;98.48;94954.97;5056320;28;20224;-79
2021/10/31 06:24:14;;;;;;;1.20;1.10;;;;;;;9.34;98.39;94954.50;5055714;28;20263;-77
2021/10/31 06:26:40;;;;;;;1.47;1.37;;;;;;;9.34;97.68;94951.09;5039960;28;20185;-79
2021/10/31 06:29:05;;;;;;;1.43;1.33;;;;;;;9.32;97.52;94950.44;5057178;28;20632;-79
2021/10/31 06:31:30;;;;;;;1.93;1.50;;;;;;;9.33;97.66;94949.47;5046188;28;20277;-80
2021/10/31 06:33:56;;;;;;;2.00;1.40;;;;;;;9.31;97.41;94947.03;5052989;28;20178;-76
2021/10/31 06:36:21;;;;;;;3.37;1.60;;;;;;;9.30;97.29;94947.19;5053739;28;20560;-79
2021/10/31 06:38:46;;;;;;;1.80;1.70;;;;;;;9.34;97.59;94951.09;5053922;28;20227;-79
2021/10/31 06:41:12;;;;;;;2.03;1.83;;;;;;;9.41;97.49;94959.06;5039335;28;20179;-79
2021/10/31 06:43:38;;;;;;;2.13;1.50;;;;;;;9.46;97.26;94954.25;5056228;28;20189;-77
2021/10/31 06:46:03;;;;;;;1.93;1.73;;;;;;;9.52;96.88;94951.00;5038692;28;20180;-77
2021/10/31 06:48:28;;;;;;;1.40;1.30;;;;;;;9.56;97.16;94962.69;5052757;28;20610;-78
2021/10/31 06:50:55;;;;;;;2.27;1.40;;;;;;;9.59;97.00;94955.41;5053369;28;20236;-77
2021/10/31 06:53:21;;;;;;;2.37;1.90;;;;;;;9.65;96.70;94948.81;5054066;28;20516;-78
2021/10/31 06:55:46;;;;;;;1.60;1.50;;;;;;;9.69;96.68;94955.28;5055411;28;20196;-79
2021/10/31 06:58:12;;;;;;;1.83;1.73;;;;;;;9.75;96.54;94954.66;5036676;28;20170;-77
2021/10/31 07:00:37;;;;;;;2.13;1.93;;;;;;;9.90;95.50;94953.13;5053533;28;20633;-77
2021/10/31 07:03:02;;;;;;;2.10;1.90;;;;;;;9.89;95.38;94954.09;5053330;28;20174;-77
2021/10/31 07:05:28;;;;;;;2.00;1.80;;;;;;;9.89;95.10;94948.06;5054086;28;20586;-77
2021/10/31 07:07:53;;;;;;;1.90;1.70;;;;;;;9.92;95.17;94960.72;5058626;28;20657;-77
2021/10/31 07:10:18;;;;;;;3.43;2.00;;;;;;;9.93;94.81;94949.38;5065894;28;20189;-77
2021/10/31 07:12:44;;;;;;;4.50;2.50;;;;;;;9.99;94.35;94943.56;5057085;28;20225;-77
2021/10/31 07:15:09;;;;;;;2.07;1.87;;;;;;;10.11;94.19;94944.06;5072323;28;20177;-77
2021/10/31 07:17:38;;;;;;;3.23;2.60;;;;;;;10.04;93.88;94949.06;5056256;28;20206;-77
2021/10/31 07:20:04;;;;;;;2.40;2.20;;;;;;;10.04;93.60;94943.88;5055374;28;20200;-77
2021/10/31 07:22:29;;;;;;;2.53;2.17;;;;;;;10.16;92.99;94944.41;5073580;28;20181;-77
2021/10/31 07:24:55;;;;;;;2.30;2.10;;;;;;;10.09;93.47;94946.03;5055015;28;20196;-77
2021/10/31 07:27:21;;;;;;;2.33;2.10;;;;;;;10.09;93.08;94946.84;5074143;28;20181;-77
2021/10/31 07:29:46;;;;;;;2.90;2.20;;;;;;;10.22;92.38;94936.00;5072674;28;20278;-77
2021/10/31 07:32:12;;;;;;;2.60;2.40;;;;;;;10.13;92.69;94934.34;5055111;28;20180;-77
2021/10/31 07:34:37;;;;;;;2.57;2.23;;;;;;;10.12;93.02;94935.31;5061925;28;20189;-78
2021/10/31 07:37:02;;;;;;;2.50;2.20;;;;;;;10.19;92.64;94931.94;5067883;28;20177;-79
2021/10/31 07:39:30;;;;;;;2.90;2.00;;;;;;;10.25;92.57;94927.09;5072003;28;20211;-78
2021/10/31 07:41:55;;;;;;;2.20;1.90;;;;;;;10.23;92.60;94929.84;5072441;28;20589;-77
2021/10/31 07:44:21;;;;;;;2.40;2.00;;;;;;;10.28;92.80;94925.00;5055231;28;20185;-77
2021/10/31 07:46:46;;;;;;;2.13;1.93;;;;;;;10.29;92.82;94924.03;5047390;28;20178;-79
2021/10/31 07:49:11;;;;;;;2.70;1.90;;;;;;;10.27;92.33;94932.94;5050985;28;20212;-79
2021/10/31 07:51:37;;;;;;;2.40;2.20;;;;;;;10.33;92.41;94925.31;5034902;28;20541;-79
2021/10/31 07:54:02;;;;;;;2.63;2.43;;;;;;;10.38;91.87;94924.84;5050294;28;20182;-79
2021/10/31 07:56:31;;;;;;;2.63;2.20;;;;;;;10.52;91.80;94916.41;5034642;28;20181;-79
2021/10/31 07:58:57;;;;;;;2.80;2.00;;;;;;;10.46;92.01;94917.06;5046073;28;20665;-79
2021/10/31 08:01:23;;;;;;;2.43;2.00;;;;;;;10.55;91.99;94910.88;5052337;28;20200;-79
2021/10/31 08:03:50;;;;;;;1.97;1.80;;;;;;;10.66;92.13;94914.94;5033600;28;20206;-81
2021/10/31 08:06:16;;;;;;;2.20;2.00;;;;;;;10.70;91.62;94913.66;5034218;28;20268;-82
2021/10/31 08:08:41;;;;;;;3.73;2.20;;;;;;;10.73;91.85;94910.72;5055066;28;20275;-81
2021/10/31 08:11:06;;;;;;;3.33;2.23;;;;;;;10.89;91.33;94910.69;5050461;28;20201;-80
2021/10/31 08:13:32;;;;;;;2.13;1.97;;;;;;;11.01;91.06;94905.97;5050165;28;20165;-81
2021/10/31 08:15:57;;;;;;;1.93;1.73;;;;;;;11.10;90.68;94898.97;5050371;28;20174;-83
2021/10/31 08:18:23;;;;;;;3.07;1.90;;;;;;;11.17;90.63;94897.31;5039031;28;20201;-80
2021/10/31 08:20:49;;;;;;;2.30;1.60;;;;;;;11.29;89.96;94898.56;5059529;28;20197;-79
2021/10/31 08:23:15;;;;;;;1.70;1.60;;;;;;;11.30;89.89;94889.78;5033995;28;20549;-81
2021/10/31 08:25:41;;;;;;;2.30;1.60;;;;;;;11.50;89.44;94883.25;5033407;28;20620;-81
2021/10/31 08:28:09;;;;;;;2.50;1.50;;;;;;;11.61;89.27;94880.25;5033734;28;20176;-81
2021/10/31 08:30:35;;;;;;;1.87;1.57;;;;;;;11.74;88.62;94869.28;5057571;28;20201;-81
2021/10/31 08:33:07;;;;;;;1.40;1.30;;;;;;;11.98;87.00;94863.16;5067048;28;20745;-79
2021/10/31 08:35:33;;;;;;;1.37;1.13;;;;;;;12.14;86.84;94855.25;5070820;28;20184;-79
2021/10/31 08:37:58;;;;;;;1.40;1.30;;;;;;;12.37;85.43;94844.03;5056787;28;20177;-80
2021/10/31 08:40:24;;;;;;;1.83;1.57;;;;;;;12.59;83.89;94861.41;5052803;28;20203;-80
2021/10/31 08:42:49;;;;;;;1.97;1.60;;;;;;;12.72;83.43;94851.19;5060461;28;20177;-81
2021/10/31 08:45:15;;;;;;;1.60;1.30;;;;;;;12.83;83.07;94851.75;5054362;28;20553;-80
2021/10/31 08:47:40;;;;;;;2.00;1.10;;;;;;;12.92;81.97;94840.25;5038304;28;20653;-80
2021/10/31 08:50:06;;;;;;;1.60;1.30;;;;;;;13.06;81.35;94834.22;5064150;28;20233;-80
2021/10/31 08:52:32;;;;;;;1.43;1.10;;;;;;;13.20;79.71;94836.06;5076760;28;20264;-81
2021/10/31 08:54:57;;;;;;;1.23;1.10;;;;;;;13.34;79.09;94831.81;5058212;28;20210;-80
2021/10/31 08:57:22;;;;;;;1.10;1.00;;;;;;;13.45;78.78;94836.56;5058944;28;20189;-80
2021/10/31 08:59:48;;;;;;;1.70;1.10;;;;;;;13.64;76.10;94822.13;5066993;28;20220;-79
2021/10/31 09:02:13;;;;;;;0.90;0.90;;;;;;;13.80;74.71;94824.53;5058298;28;20224;-81
2021/10/31 09:04:39;;;;;;;1.53;1.30;;;;;;;13.92;73.97;94818.81;5047477;28;20193;-81
2021/10/31 09:07:14;;;;;;;1.63;1.13;;;;;;;13.98;73.84;94820.69;5048293;28;20185;-80
2021/10/31 09:09:39;;;;;;;3.67;2.40;;;;;;;14.06;74.09;94823.19;5059166;28;20294;-79
2021/10/31 09:12:05;;;;;;;2.00;1.30;;;;;;;14.07;73.13;94830.00;5064815;28;20549;-81
2021/10/31 09:14:30;;;;;;;4.13;3.30;;;;;;;14.15;72.64;94827.28;5073051;28;20177;-80
2021/10/31 09:16:55;;;;;;;3.17;2.47;;;;;;;14.24;71.60;94826.16;5074864;28;20173;-80
2021/10/31 09:19:20;;;;;;;1.07;0.93;;;;;;;14.25;71.29;94819.94;5073060;28;20205;-79
2021/10/31 09:21:46;;;;;;;1.70;1.00;;;;;;;14.22;72.15;94822.09;5063633;28;20540;-81
2021/10/31 09:24:11;;;;;;;0.83;0.80;;;;;;;14.29;72.81;94821.16;5071299;28;20689;-80
2021/10/31 09:26:37;;;;;;;1.23;1.13;;;;;;;14.26;73.44;94824.16;5056965;28;20196;-81
2021/10/31 09:29:03;;;;;;;1.27;1.17;;;;;;;14.28;73.75;94821.34;5056793;28;20208;-81
2021/10/31 09:31:28;;;;;;;2.80;1.43;;;;;;;14.35;73.68;94812.59;5053005;28;20209;-79
2021/10/31 09:33:54;;;;;;;1.10;1.00;;;;;;;14.29;73.87;94821.16;5061779;28;20185;-81
2021/10/31 09:36:20;;;;;;;1.83;1.53;;;;;;;14.27;73.24;94819.75;5054902;28;20637;-79
2021/10/31 09:38:45;;;;;;;1.30;1.20;;;;;;;14.36;72.40;94814.19;5053301;28;20201;-81
2021/10/31 09:41:13;;;;;;;3.00;1.73;;;;;;;14.51;72.26;94826.41;5037857;28;20557;-81
2021/10/31 09:43:47;;;;;;;2.00;1.30;;;;;;;14.50;71.47;94819.56;5044922;28;20205;-80
2021/10/31 09:46:12;;;;;;;1.30;1.20;;;;;;;14.56;71.68;94824.03;5037549;28;20188;-78
2021/10/31 09:48:38;;;;;;;0.93;0.90;;;;;;;14.69;71.76;94824.13;5035597;28;20525;-82
2021/10/31 09:51:05;;;;;;;1.10;1.00;;;;;;;14.72;71.30;94819.31;5052277;28;20676;-81
2021/10/31 09:53:30;;;;;;;0.90;0.70;;;;;;;14.86;71.61;94825.47;5046090;28;20181;-82
2021/10/31 09:55:57;;;;;;;1.00;0.87;;;;;;;14.99;72.28;94835.19;5051501;28;20559;-82
2021/10/31 10:01:34;;;;;;;0.93;0.80;;;;;;;15.07;71.53;94823.78;5031139;28;20179;-81
2021/10/31 10:04:00;;;;;;;0.97;0.97;;;;;;;15.17;69.85;94822.41;5039480;28;20186;-82
2021/10/31 10:06:25;;;;;;;1.17;0.80;;;;;;;15.17;69.50;94822.41;5034207;28;20814;-81
2021/10/31 10:09:07;;;;;;;0.80;0.80;;;;;;;15.23;69.47;94818.22;5050912;28;20237;-83
2021/10/31 10:11:42;;;;;;;0.65;0.60;;;;;;;15.21;69.24;94821.03;5050787;28;20622;-82
2021/10/31 10:14:10;;;;;;;0.80;0.80;;;;;;;15.34;68.34;94816.88;5027899;28;20648;-81
2021/10/31 10:16:36;;;;;;;0.90;0.90;;;;;;;15.44;66.48;94814.69;5038344;28;20189;-82
2021/10/31 10:19:14;;;;;;;1.90;0.70;;;;;;;15.37;66.15;94809.44;5046775;28;20280;-83
2021/10/31 10:21:39;;;;;;;1.03;0.70;;;;;;;15.39;64.66;94804.03;5035645;28;20204;-83
2021/10/31 10:24:09;;;;;;;1.00;0.90;;;;;;;15.35;65.35;94797.53;5014958;28;20664;-83
2021/10/31 10:26:36;;;;;;;1.10;0.97;;;;;;;15.45;64.76;94793.56;5034231;28;20229;-84
2021/10/31 10:29:20;;;;;;;1.00;0.90;;;;;;;15.59;63.67;94791.81;5018235;28;20648;-86
2021/10/31 10:31:48;;;;;;;0.70;0.70;;;;;;;15.61;62.93;94787.22;5018453;28;20198;-83
2021/10/31 10:34:14;;;;;;;0.70;0.70;;;;;;;15.75;62.76;94781.03;5017478;28;20228;-82
2021/10/31 10:36:44;;;;;;;2.00;0.80;;;;;;;15.79;62.19;94781.41;5019031;28;20244;-81
2021/10/31 10:39:16;;;;;;;0.93;0.80;;;;;;;15.83;62.14;94785.25;5053105;28;20198;-80
2021/10/31 10:41:46;;;;;;;1.17;0.90;;;;;;;15.95;63.04;94782.84;5053253;28;20192;-80
2021/10/31 10:44:16;;;;;;;0.80;0.80;;;;;;;16.05;59.15;94778.03;5069092;28;20186;-81
2021/10/31 10:46:41;;;;;;;1.20;1.07;;;;;;;16.01;59.74;94777.66;5065701;28;20189;-83
2021/10/31 10:49:09;;;;;;;1.10;0.93;;;;;;;16.01;59.71;94779.47;5062422;28;20201;-83
2021/10/31 10:51:35;;;;;;;0.73;0.63;;;;;;;15.90;59.06;94778.22;5045910;28;20208;-83
2021/10/31 10:54:14;;;;;;;1.50;1.40;;;;;;;15.97;59.20;94765.94;5052867;28;20547;-83
2021/10/31 10:57:01;;;;;;;1.35;0.90;;;;;;;15.80;59.96;94772.56;5059922;28;20185;-82
2021/10/31 10:59:27;;;;;;;1.13;0.90;;;;;;;15.94;59.85;94766.34;5045151;28;20209;-83
2021/10/31 11:02:13;;;;;;;1.03;0.93;;;;;;;15.74;60.28;94766.31;5051821;28;20771;-83
2021/10/31 11:04:40;;;;;;;1.55;1.00;;;;;;;15.81;60.31;94758.47;5050953;28;20184;-82
2021/10/31 11:07:06;;;;;;;1.60;0.90;;;;;;;15.98;60.41;94751.84;5059116;28;20193;-80
2021/10/31 11:09:40;;;;;;;1.10;0.80;;;;;;;16.17;59.80;94752.88;5063048;28;20632;-83
2021/10/31 11:12:26;;;;;;;0.90;0.90;;;;;;;16.17;59.21;94741.56;5071730;28;20173;-82
2021/10/31 11:14:52;;;;;;;1.10;0.90;;;;;;;16.29;58.94;94737.34;5071460;28;20251;-83
2021/10/31 11:17:18;;;;;;;1.52;1.02;;;;;;;16.35;57.86;94732.13;5053179;28;20215;-82
2021/10/31 11:19:45;;;;;;;1.20;0.90;;;;;;;16.60;57.22;94729.66;5063536;28;20593;-82
2021/10/31 11:22:11;;;;;;;4.20;0.90;;;;;;;16.37;57.42;94727.47;5054706;28;20185;-83
2021/10/31 11:24:37;;;;;;;1.33;1.10;;;;;;;16.48;57.19;94717.38;5053581;28;20285;-83
2021/10/31 11:27:03;;;;;;;1.10;1.00;;;;;;;16.52;56.88;94715.94;5055210;28;20185;-82
2021/10/31 11:29:31;;;;;;;1.42;1.00;;;;;;;16.70;57.69;94709.13;5062874;28;20228;-82
2021/10/31 11:32:01;;;;;;;1.45;1.20;;;;;;;16.75;57.48;94702.44;5067018;28;20264;-82
2021/10/31 11:34:27;;;;;;;1.50;0.90;;;;;;;16.81;57.88;94697.19;5071413;28;20185;-82
2021/10/31 11:36:53;;;;;;;1.15;1.05;;;;;;;16.77;57.90;94700.41;5072212;28;20181;-82
2021/10/31 11:39:19;;;;;;;1.63;1.20;;;;;;;16.82;57.03;94696.16;5066216;28;20687;-82
2021/10/31 11:41:45;;;;;;;1.60;1.48;;;;;;;16.84;57.90;94696.75;5047784;28;20191;-79